sensor_id;sensor_type;location;lat;lon;timestamp;temperature;humidity
8220;DHT22;4151;51.110;7.020;2023-03-01T00:01:52;-1.30;99.90
8220;DHT22;4151;51.110;7.020;2023-03-01T00:04:18;-1.30;99.90
8220;DHT22;4151;51.110;7.020;2023-03-01T00:06:43;-1.30;99.90
8220;DHT22;4151;51.110;7.020;2023-03-01T00:09:14;-1.30;99.90
8220;DHT22;4151;51.110;7.020;2023-03-01T00:11:39;-1.40;99.90
8220;DHT22;4151;51.110;7.020;2023-03-01T00:14:05;-1.40;99.90
8220;DHT22;4151;51.110;7.020;2023-03-01T00:16:34;-1.40;99.90
8220;DHT22;4151;51.110;7.020;2023-03-01T00:19:00;-1.40;99.90
8220;DHT22;4151;51.110;7.020;2023-03-01T00:21:27;-1.40;99.90
8220;DHT22;4151;51.110;7.020;2023-03-01T00:23:54;-1.50;99.90
8220;DHT22;4151;51.110;7.020;2023-03-01T00:26:21;-1.50;99.90
8220;DHT22;4151;51.110;7.020;2023-03-01T00:28:47;-1.50;99.90
8220;DHT22;4151;51.110;7.020;2023-03-01T00:31:19;-1.50;99.90
8220;DHT22;4151;51.110;7.020;2023-03-01T00:33:45;-1.50;99.90
8220;DHT22;4151;51.110;7.020;2023-03-01T00:36:13;-1.50;99.90
8220;DHT22;4151;51.110;7.020;2023-03-01T00:38:41;-1.50;99.90
8220;DHT22;4151;51.110;7.020;2023-03-01T00:41:12;-1.50;99.90
8220;DHT22;4151;51.110;7.020;2023-03-01T00:43:38;-1.60;99.90
8220;DHT22;4151;51.110;7.020;2023-03-01T00:46:06;-1.60;99.90
8220;DHT22;4151;51.110;7.020;2023-03-01T00:48:32;-1.60;99.90
8220;DHT22;4151;51.110;7.020;2023-03-01T00:51:05;-1.70;99.90
8220;DHT22;4151;51.110;7.020;2023-03-01T00:53:31;-1.60;99.90
8220;DHT22;4151;51.110;7.020;2023-03-01T00:55:58;-1.70;99.90
8220;DHT22;4151;51.110;7.020;2023-03-01T00:58:23;-1.70;99.90
8220;DHT22;4151;51.110;7.020;2023-03-01T01:00:49;-1.70;99.90
8220;DHT22;4151;51.110;7.020;2023-03-01T01:03:15;-1.70;99.90
8220;DHT22;4151;51.110;7.020;2023-03-01T01:05:41;-1.70;99.90
8220;DHT22;4151;51.110;7.020;2023-03-01T01:08:06;-1.70;99.90
8220;DHT22;4151;51.110;7.020;2023-03-01T01:10:34;-1.70;99.90
8220;DHT22;4151;51.110;7.020;2023-03-01T01:12:59;-1.70;99.90
8220;DHT22;4151;51.110;7.020;2023-03-01T01:15:26;-1.80;99.90
8220;DHT22;4151;51.110;7.020;2023-03-01T01:17:52;-1.70;99.90
8220;DHT22;4151;51.110;7.020;2023-03-01T01:20:17;-1.80;99.90
8220;DHT22;4151;51.110;7.020;2023-03-01T01:22:43;-1.80;99.90
8220;DHT22;4151;51.110;7.020;2023-03-01T01:25:09;-1.80;99.90
8220;DHT22;4151;51.110;7.020;2023-03-01T01:27:36;-1.80;99.90
8220;DHT22;4151;51.110;7.020;2023-03-01T01:30:02;-2.00;99.90
8220;DHT22;4151;51.110;7.020;2023-03-01T01:32:27;-1.90;99.90
8220;DHT22;4151;51.110;7.020;2023-03-01T01:34:53;-1.90;99.90
8220;DHT22;4151;51.110;7.020;2023-03-01T01:37:19;-2.00;99.90
8220;DHT22;4151;51.110;7.020;2023-03-01T01:39:44;-2.00;99.90
8220;DHT22;4151;51.110;7.020;2023-03-01T01:42:16;-2.00;99.90
8220;DHT22;4151;51.110;7.020;2023-03-01T01:44:42;-2.00;99.90
8220;DHT22;4151;51.110;7.020;2023-03-01T01:47:29;-2.10;99.90
8220;DHT22;4151;51.110;7.020;2023-03-01T01:49:56;-2.10;99.90
8220;DHT22;4151;51.110;7.020;2023-03-01T01:52:29;-2.20;99.90
8220;DHT22;4151;51.110;7.020;2023-03-01T01:55:11;-2.20;99.90
8220;DHT22;4151;51.110;7.020;2023-03-01T01:57:44;-2.30;99.90
8220;DHT22;4151;51.110;7.020;2023-03-01T02:00:15;-2.30;99.90
8220;DHT22;4151;51.110;7.020;2023-03-01T02:02:43;-2.30;99.90
8220;DHT22;4151;51.110;7.020;2023-03-01T02:05:22;-2.20;99.90
8220;DHT22;4151;51.110;7.020;2023-03-01T02:07:49;-2.30;99.90
8220;DHT22;4151;51.110;7.020;2023-03-01T02:10:15;-2.30;99.90
8220;DHT22;4151;51.110;7.020;2023-03-01T02:12:41;-2.20;99.90
8220;DHT22;4151;51.110;7.020;2023-03-01T02:15:07;-2.30;99.90
8220;DHT22;4151;51.110;7.020;2023-03-01T02:17:33;-2.30;99.90
8220;DHT22;4151;51.110;7.020;2023-03-01T02:22:52;-2.30;99.90
8220;DHT22;4151;51.110;7.020;2023-03-01T02:27:59;-2.40;99.90
8220;DHT22;4151;51.110;7.020;2023-03-01T02:30:27;-2.50;99.90
8220;DHT22;4151;51.110;7.020;2023-03-01T02:32:55;-2.40;99.90
8220;DHT22;4151;51.110;7.020;2023-03-01T02:35:32;-2.40;99.90
8220;DHT22;4151;51.110;7.020;2023-03-01T02:38:00;-2.40;99.90
8220;DHT22;4151;51.110;7.020;2023-03-01T02:40:28;-2.40;99.90
8220;DHT22;4151;51.110;7.020;2023-03-01T02:42:57;-2.40;99.90
8220;DHT22;4151;51.110;7.020;2023-03-01T02:45:23;-2.40;99.90
8220;DHT22;4151;51.110;7.020;2023-03-01T02:47:49;-2.40;99.90
8220;DHT22;4151;51.110;7.020;2023-03-01T02:50:44;-2.40;99.90
8220;DHT22;4151;51.110;7.020;2023-03-01T02:53:17;-2.40;99.90
8220;DHT22;4151;51.110;7.020;2023-03-01T02:55:47;-2.30;99.90
8220;DHT22;4151;51.110;7.020;2023-03-01T02:58:13;-2.40;99.90
8220;DHT22;4151;51.110;7.020;2023-03-01T03:00:41;-2.40;99.90
8220;DHT22;4151;51.110;7.020;2023-03-01T03:03:16;-2.40;99.90
8220;DHT22;4151;51.110;7.020;2023-03-01T03:05:42;-2.30;99.90
8220;DHT22;4151;51.110;7.020;2023-03-01T03:08:08;-2.40;99.90
8220;DHT22;4151;51.110;7.020;2023-03-01T03:10:37;-2.40;99.90
8220;DHT22;4151;51.110;7.020;2023-03-01T03:13:08;-2.40;99.90
8220;DHT22;4151;51.110;7.020;2023-03-01T03:15:35;-2.30;99.90
8220;DHT22;4151;51.110;7.020;2023-03-01T03:18:03;-2.40;99.90
8220;DHT22;4151;51.110;7.020;2023-03-01T03:20:29;-2.40;99.90
8220;DHT22;4151;51.110;7.020;2023-03-01T03:22:57;-2.40;99.90
8220;DHT22;4151;51.110;7.020;2023-03-01T03:25:24;-2.50;99.90
8220;DHT22;4151;51.110;7.020;2023-03-01T03:27:51;-2.40;99.90
8220;DHT22;4151;51.110;7.020;2023-03-01T03:30:23;-2.40;99.90
8220;DHT22;4151;51.110;7.020;2023-03-01T03:32:49;-2.40;99.90
8220;DHT22;4151;51.110;7.020;2023-03-01T03:35:23;-2.50;99.90
8220;DHT22;4151;51.110;7.020;2023-03-01T03:37:50;-2.50;99.90
8220;DHT22;4151;51.110;7.020;2023-03-01T03:40:39;-2.50;99.90
8220;DHT22;4151;51.110;7.020;2023-03-01T03:43:07;-2.50;99.90
8220;DHT22;4151;51.110;7.020;2023-03-01T03:45:34;-2.50;99.90
8220;DHT22;4151;51.110;7.020;2023-03-01T03:48:01;-2.60;99.90
8220;DHT22;4151;51.110;7.020;2023-03-01T03:50:27;-2.60;99.90
8220;DHT22;4151;51.110;7.020;2023-03-01T03:52:53;-2.60;99.90
8220;DHT22;4151;51.110;7.020;2023-03-01T03:55:19;-2.70;99.90
8220;DHT22;4151;51.110;7.020;2023-03-01T03:57:46;-2.70;99.90
8220;DHT22;4151;51.110;7.020;2023-03-01T04:00:18;-2.70;99.90
8220;DHT22;4151;51.110;7.020;2023-03-01T04:02:45;-2.70;99.90
8220;DHT22;4151;51.110;7.020;2023-03-01T04:05:12;-2.70;99.90
8220;DHT22;4151;51.110;7.020;2023-03-01T04:07:40;-2.60;99.90
8220;DHT22;4151;51.110;7.020;2023-03-01T04:10:09;-2.50;99.90
8220;DHT22;4151;51.110;7.020;2023-03-01T04:12:35;-2.50;99.90
8220;DHT22;4151;51.110;7.020;2023-03-01T04:15:01;-2.40;99.90
8220;DHT22;4151;51.110;7.020;2023-03-01T04:17:38;-2.30;99.90
8220;DHT22;4151;51.110;7.020;2023-03-01T04:20:05;-2.20;99.90
8220;DHT22;4151;51.110;7.020;2023-03-01T04:22:31;-2.30;99.90
8220;DHT22;4151;51.110;7.020;2023-03-01T04:24:57;-2.20;99.90
8220;DHT22;4151;51.110;7.020;2023-03-01T04:27:23;-2.20;99.90
8220;DHT22;4151;51.110;7.020;2023-03-01T04:29:49;-2.20;99.90
8220;DHT22;4151;51.110;7.020;2023-03-01T04:32:14;-2.00;99.90
8220;DHT22;4151;51.110;7.020;2023-03-01T04:34:41;-2.00;99.90
8220;DHT22;4151;51.110;7.020;2023-03-01T04:37:07;-2.00;99.90
8220;DHT22;4151;51.110;7.020;2023-03-01T04:39:32;-2.00;99.90
8220;DHT22;4151;51.110;7.020;2023-03-01T04:41:58;-2.00;99.90
8220;DHT22;4151;51.110;7.020;2023-03-01T04:44:23;-2.00;99.90
8220;DHT22;4151;51.110;7.020;2023-03-01T04:46:49;-2.00;99.90
8220;DHT22;4151;51.110;7.020;2023-03-01T04:49:15;-1.90;99.90
8220;DHT22;4151;51.110;7.020;2023-03-01T04:51:41;-1.90;99.90
8220;DHT22;4151;51.110;7.020;2023-03-01T04:54:07;-1.80;99.90
8220;DHT22;4151;51.110;7.020;2023-03-01T04:56:34;-1.80;99.90
8220;DHT22;4151;51.110;7.020;2023-03-01T04:58:59;-1.80;99.90
8220;DHT22;4151;51.110;7.020;2023-03-01T05:01:25;-1.80;99.90
8220;DHT22;4151;51.110;7.020;2023-03-01T05:03:52;-1.70;99.90
8220;DHT22;4151;51.110;7.020;2023-03-01T05:06:19;-1.70;99.90
8220;DHT22;4151;51.110;7.020;2023-03-01T05:08:44;-1.70;99.90
8220;DHT22;4151;51.110;7.020;2023-03-01T05:11:11;-1.80;99.90
8220;DHT22;4151;51.110;7.020;2023-03-01T05:13:38;-1.70;99.90
8220;DHT22;4151;51.110;7.020;2023-03-01T05:16:04;-1.70;99.90
8220;DHT22;4151;51.110;7.020;2023-03-01T05:18:32;-1.70;99.90
8220;DHT22;4151;51.110;7.020;2023-03-01T05:21:07;-1.60;99.90
8220;DHT22;4151;51.110;7.020;2023-03-01T05:23:33;-1.60;99.90
8220;DHT22;4151;51.110;7.020;2023-03-01T05:26:00;-1.60;99.90
8220;DHT22;4151;51.110;7.020;2023-03-01T05:28:27;-1.70;99.90
8220;DHT22;4151;51.110;7.020;2023-03-01T05:30:54;-1.70;99.90
8220;DHT22;4151;51.110;7.020;2023-03-01T05:33:20;-1.70;99.90
8220;DHT22;4151;51.110;7.020;2023-03-01T05:35:48;-1.70;99.90
8220;DHT22;4151;51.110;7.020;2023-03-01T05:38:14;-1.70;99.90
8220;DHT22;4151;51.110;7.020;2023-03-01T05:40:41;-1.70;99.90
8220;DHT22;4151;51.110;7.020;2023-03-01T05:43:09;-1.70;99.90
8220;DHT22;4151;51.110;7.020;2023-03-01T05:45:36;-1.70;99.90
8220;DHT22;4151;51.110;7.020;2023-03-01T05:48:03;-1.70;99.90
8220;DHT22;4151;51.110;7.020;2023-03-01T05:50:32;-1.80;99.90
8220;DHT22;4151;51.110;7.020;2023-03-01T05:53:01;-1.80;99.90
8220;DHT22;4151;51.110;7.020;2023-03-01T05:55:28;-1.70;99.90
8220;DHT22;4151;51.110;7.020;2023-03-01T05:57:54;-1.70;99.90
8220;DHT22;4151;51.110;7.020;2023-03-01T06:00:21;-1.60;99.90
8220;DHT22;4151;51.110;7.020;2023-03-01T06:02:49;-1.60;99.90
8220;DHT22;4151;51.110;7.020;2023-03-01T06:05:16;-1.70;99.90
8220;DHT22;4151;51.110;7.020;2023-03-01T06:07:42;-1.60;99.90
8220;DHT22;4151;51.110;7.020;2023-03-01T06:10:09;-1.60;99.90
8220;DHT22;4151;51.110;7.020;2023-03-01T06:12:37;-1.60;99.90
8220;DHT22;4151;51.110;7.020;2023-03-01T06:15:04;-1.60;99.90
8220;DHT22;4151;51.110;7.020;2023-03-01T06:17:30;-1.60;99.90
8220;DHT22;4151;51.110;7.020;2023-03-01T06:19:56;-1.60;99.90
8220;DHT22;4151;51.110;7.020;2023-03-01T06:22:22;-1.50;99.90
8220;DHT22;4151;51.110;7.020;2023-03-01T06:24:48;-1.50;99.90
8220;DHT22;4151;51.110;7.020;2023-03-01T06:27:13;-1.50;99.90
8220;DHT22;4151;51.110;7.020;2023-03-01T06:29:39;-1.50;99.90
8220;DHT22;4151;51.110;7.020;2023-03-01T06:32:04;-1.50;99.90
8220;DHT22;4151;51.110;7.020;2023-03-01T06:34:30;-1.40;99.90
8220;DHT22;4151;51.110;7.020;2023-03-01T06:36:56;-1.40;99.90
8220;DHT22;4151;51.110;7.020;2023-03-01T06:39:21;-1.40;99.90
8220;DHT22;4151;51.110;7.020;2023-03-01T06:41:47;-1.40;99.90
8220;DHT22;4151;51.110;7.020;2023-03-01T06:44:13;-1.30;99.90
8220;DHT22;4151;51.110;7.020;2023-03-01T06:46:39;-1.30;99.90
8220;DHT22;4151;51.110;7.020;2023-03-01T06:49:05;-1.30;99.90
8220;DHT22;4151;51.110;7.020;2023-03-01T06:51:37;-1.30;99.90
8220;DHT22;4151;51.110;7.020;2023-03-01T06:54:05;-1.20;99.90
8220;DHT22;4151;51.110;7.020;2023-03-01T06:56:32;-1.20;99.90
8220;DHT22;4151;51.110;7.020;2023-03-01T06:58:57;-1.20;99.90
8220;DHT22;4151;51.110;7.020;2023-03-01T07:01:23;-1.20;99.90
8220;DHT22;4151;51.110;7.020;2023-03-01T07:03:49;-1.10;99.90
8220;DHT22;4151;51.110;7.020;2023-03-01T07:06:14;-1.00;99.90
8220;DHT22;4151;51.110;7.020;2023-03-01T07:08:40;-1.00;99.90
8220;DHT22;4151;51.110;7.020;2023-03-01T07:11:06;-1.00;99.90
8220;DHT22;4151;51.110;7.020;2023-03-01T07:13:32;-0.90;99.90
8220;DHT22;4151;51.110;7.020;2023-03-01T07:15:57;-0.90;99.90
8220;DHT22;4151;51.110;7.020;2023-03-01T07:18:23;-0.90;99.90
8220;DHT22;4151;51.110;7.020;2023-03-01T07:20:48;-0.70;99.90
8220;DHT22;4151;51.110;7.020;2023-03-01T07:23:14;-0.70;99.90
8220;DHT22;4151;51.110;7.020;2023-03-01T07:25:40;-0.60;99.90
8220;DHT22;4151;51.110;7.020;2023-03-01T07:28:06;-0.50;99.90
8220;DHT22;4151;51.110;7.020;2023-03-01T07:30:31;-0.40;99.90
8220;DHT22;4151;51.110;7.020;2023-03-01T07:33:00;-0.30;99.90
8220;DHT22;4151;51.110;7.020;2023-03-01T07:35:27;-0.20;99.90
8220;DHT22;4151;51.110;7.020;2023-03-01T07:37:53;-0.10;99.90
8220;DHT22;4151;51.110;7.020;2023-03-01T07:40:18;0.00;99.90
8220;DHT22;4151;51.110;7.020;2023-03-01T07:42:44;0.10;99.90
8220;DHT22;4151;51.110;7.020;2023-03-01T07:45:10;0.20;99.90
8220;DHT22;4151;51.110;7.020;2023-03-01T07:47:36;0.20;99.90
8220;DHT22;4151;51.110;7.020;2023-03-01T07:50:02;0.30;99.90
8220;DHT22;4151;51.110;7.020;2023-03-01T07:52:29;0.40;99.90
8220;DHT22;4151;51.110;7.020;2023-03-01T07:54:56;0.50;99.90
8220;DHT22;4151;51.110;7.020;2023-03-01T07:57:21;0.60;99.90
8220;DHT22;4151;51.110;7.020;2023-03-01T07:59:47;0.60;99.90
8220;DHT22;4151;51.110;7.020;2023-03-01T08:02:12;0.70;99.90
8220;DHT22;4151;51.110;7.020;2023-03-01T08:04:38;0.80;99.90
8220;DHT22;4151;51.110;7.020;2023-03-01T08:07:05;0.90;99.90
8220;DHT22;4151;51.110;7.020;2023-03-01T08:09:30;1.00;99.90
8220;DHT22;4151;51.110;7.020;2023-03-01T08:11:57;1.00;99.90
8220;DHT22;4151;51.110;7.020;2023-03-01T08:14:25;1.10;99.90
8220;DHT22;4151;51.110;7.020;2023-03-01T08:16:50;1.10;99.90
8220;DHT22;4151;51.110;7.020;2023-03-01T08:19:16;1.20;99.90
8220;DHT22;4151;51.110;7.020;2023-03-01T08:21:42;1.20;99.90
8220;DHT22;4151;51.110;7.020;2023-03-01T08:24:08;1.30;99.90
8220;DHT22;4151;51.110;7.020;2023-03-01T08:26:35;1.50;99.90
8220;DHT22;4151;51.110;7.020;2023-03-01T08:29:01;2.00;99.90
8220;DHT22;4151;51.110;7.020;2023-03-01T08:31:30;2.90;99.90
8220;DHT22;4151;51.110;7.020;2023-03-01T08:33:59;3.60;99.90
8220;DHT22;4151;51.110;7.020;2023-03-01T08:36:27;4.10;99.90
8220;DHT22;4151;51.110;7.020;2023-03-01T08:38:53;4.50;99.90
8220;DHT22;4151;51.110;7.020;2023-03-01T08:41:19;5.00;99.90
8220;DHT22;4151;51.110;7.020;2023-03-01T08:43:44;5.50;99.90
8220;DHT22;4151;51.110;7.020;2023-03-01T08:46:12;5.60;99.90
8220;DHT22;4151;51.110;7.020;2023-03-01T08:48:41;5.90;99.90
8220;DHT22;4151;51.110;7.020;2023-03-01T08:51:14;5.90;99.90
8220;DHT22;4151;51.110;7.020;2023-03-01T08:53:41;6.60;99.90
8220;DHT22;4151;51.110;7.020;2023-03-01T08:56:07;6.60;99.90
8220;DHT22;4151;51.110;7.020;2023-03-01T08:58:33;6.90;99.90
8220;DHT22;4151;51.110;7.020;2023-03-01T09:00:58;7.70;99.90
8220;DHT22;4151;51.110;7.020;2023-03-01T09:03:24;7.70;99.90
8220;DHT22;4151;51.110;7.020;2023-03-01T09:05:51;8.30;99.90
8220;DHT22;4151;51.110;7.020;2023-03-01T09:08:18;8.60;99.90
8220;DHT22;4151;51.110;7.020;2023-03-01T09:10:44;8.60;99.90
8220;DHT22;4151;51.110;7.020;2023-03-01T09:13:10;8.00;99.90
8220;DHT22;4151;51.110;7.020;2023-03-01T09:15:38;8.00;99.90
8220;DHT22;4151;51.110;7.020;2023-03-01T09:18:04;8.40;99.90
8220;DHT22;4151;51.110;7.020;2023-03-01T09:20:31;7.60;99.90
8220;DHT22;4151;51.110;7.020;2023-03-01T09:22:57;7.60;99.90
8220;DHT22;4151;51.110;7.020;2023-03-01T09:25:23;8.20;99.90
8220;DHT22;4151;51.110;7.020;2023-03-01T09:27:53;7.80;99.90
8220;DHT22;4151;51.110;7.020;2023-03-01T09:30:18;8.30;99.90
8220;DHT22;4151;51.110;7.020;2023-03-01T09:32:44;8.50;99.90
8220;DHT22;4151;51.110;7.020;2023-03-01T09:35:11;8.90;99.90
8220;DHT22;4151;51.110;7.020;2023-03-01T09:37:37;9.00;99.90
8220;DHT22;4151;51.110;7.020;2023-03-01T09:40:09;9.30;99.90
8220;DHT22;4151;51.110;7.020;2023-03-01T09:45:43;9.60;99.90
8220;DHT22;4151;51.110;7.020;2023-03-01T09:48:16;9.20;99.90
8220;DHT22;4151;51.110;7.020;2023-03-01T09:50:43;9.10;99.90
8220;DHT22;4151;51.110;7.020;2023-03-01T09:53:27;9.10;99.90
8220;DHT22;4151;51.110;7.020;2023-03-01T09:56:03;9.60;99.90
8220;DHT22;4151;51.110;7.020;2023-03-01T09:58:49;9.20;99.90
8220;DHT22;4151;51.110;7.020;2023-03-01T10:01:32;10.20;99.90
8220;DHT22;4151;51.110;7.020;2023-03-01T10:09:43;10.60;99.90
8220;DHT22;4151;51.110;7.020;2023-03-01T10:12:17;10.90;99.90
8220;DHT22;4151;51.110;7.020;2023-03-01T10:17:47;11.40;99.90
8220;DHT22;4151;51.110;7.020;2023-03-01T10:20:22;11.50;99.90
8220;DHT22;4151;51.110;7.020;2023-03-01T10:22:48;11.30;99.90
8220;DHT22;4151;51.110;7.020;2023-03-01T10:30:43;12.20;99.80
8220;DHT22;4151;51.110;7.020;2023-03-01T10:33:31;11.60;99.40
8220;DHT22;4151;51.110;7.020;2023-03-01T10:35:57;12.10;99.00
8220;DHT22;4151;51.110;7.020;2023-03-01T10:38:23;12.40;98.30
8220;DHT22;4151;51.110;7.020;2023-03-01T10:40:55;12.90;98.40
8220;DHT22;4151;51.110;7.020;2023-03-01T10:43:40;13.30;96.60
8220;DHT22;4151;51.110;7.020;2023-03-01T10:46:25;12.80;95.00
8220;DHT22;4151;51.110;7.020;2023-03-01T10:49:21;11.80;95.50
8220;DHT22;4151;51.110;7.020;2023-03-01T10:51:50;12.20;96.60
8220;DHT22;4151;51.110;7.020;2023-03-01T10:54:28;13.00;96.00
8220;DHT22;4151;51.110;7.020;2023-03-01T10:56:59;13.20;94.60
8220;DHT22;4151;51.110;7.020;2023-03-01T11:11:52;14.50;90.70
8220;DHT22;4151;51.110;7.020;2023-03-01T11:14:21;13.60;92.20
8220;DHT22;4151;51.110;7.020;2023-03-01T11:16:49;14.30;91.40
8220;DHT22;4151;51.110;7.020;2023-03-01T11:19:22;14.60;90.60
8220;DHT22;4151;51.110;7.020;2023-03-01T11:22:12;13.90;90.80
8220;DHT22;4151;51.110;7.020;2023-03-01T11:24:47;13.90;90.90
8220;DHT22;4151;51.110;7.020;2023-03-01T11:27:28;14.60;90.00
8220;DHT22;4151;51.110;7.020;2023-03-01T11:30:05;15.00;87.90
8220;DHT22;4151;51.110;7.020;2023-03-01T11:32:40;15.40;87.90
8220;DHT22;4151;51.110;7.020;2023-03-01T11:35:19;16.00;85.60
8220;DHT22;4151;51.110;7.020;2023-03-01T11:37:58;16.70;82.60
8220;DHT22;4151;51.110;7.020;2023-03-01T11:40:33;16.40;81.10
8220;DHT22;4151;51.110;7.020;2023-03-01T11:51:33;16.40;78.70
8220;DHT22;4151;51.110;7.020;2023-03-01T11:54:13;16.70;77.60
8220;DHT22;4151;51.110;7.020;2023-03-01T11:57:13;17.10;77.10
8220;DHT22;4151;51.110;7.020;2023-03-01T12:05:07;16.70;74.30
8220;DHT22;4151;51.110;7.020;2023-03-01T12:21:10;16.60;74.40
8220;DHT22;4151;51.110;7.020;2023-03-01T12:23:57;17.30;74.10
8220;DHT22;4151;51.110;7.020;2023-03-01T12:26:36;16.40;73.70
8220;DHT22;4151;51.110;7.020;2023-03-01T12:32:07;16.20;75.10
8220;DHT22;4151;51.110;7.020;2023-03-01T12:35:13;16.60;76.00
8220;DHT22;4151;51.110;7.020;2023-03-01T12:37:58;17.30;72.50
8220;DHT22;4151;51.110;7.020;2023-03-01T12:43:36;16.80;72.40
8220;DHT22;4151;51.110;7.020;2023-03-01T12:51:24;15.90;73.10
8220;DHT22;4151;51.110;7.020;2023-03-01T12:53:53;16.30;73.40
8220;DHT22;4151;51.110;7.020;2023-03-01T12:56:25;16.10;74.80
8220;DHT22;4151;51.110;7.020;2023-03-01T12:59:15;16.10;73.90
8220;DHT22;4151;51.110;7.020;2023-03-01T13:01:57;16.10;73.30
8220;DHT22;4151;51.110;7.020;2023-03-01T13:13:13;17.10;71.90
8220;DHT22;4151;51.110;7.020;2023-03-01T13:15:40;17.50;71.30
8220;DHT22;4151;51.110;7.020;2023-03-01T13:28:51;15.80;75.30
8220;DHT22;4151;51.110;7.020;2023-03-01T13:33:49;16.50;76.30
8220;DHT22;4151;51.110;7.020;2023-03-01T13:39:27;16.30;75.10
8220;DHT22;4151;51.110;7.020;2023-03-01T13:41:54;15.90;77.10
8220;DHT22;4151;51.110;7.020;2023-03-01T13:46:51;15.50;76.80
8220;DHT22;4151;51.110;7.020;2023-03-01T13:49:23;15.50;77.70
8220;DHT22;4151;51.110;7.020;2023-03-01T13:51:50;15.30;77.20
8220;DHT22;4151;51.110;7.020;2023-03-01T13:54:29;15.20;78.20
8220;DHT22;4151;51.110;7.020;2023-03-01T13:56:58;15.20;79.50
8220;DHT22;4151;51.110;7.020;2023-03-01T13:59:24;15.60;78.20
8220;DHT22;4151;51.110;7.020;2023-03-01T14:01:59;15.50;78.50
8220;DHT22;4151;51.110;7.020;2023-03-01T14:04:30;15.90;78.50
8220;DHT22;4151;51.110;7.020;2023-03-01T14:07:17;15.90;78.80
8220;DHT22;4151;51.110;7.020;2023-03-01T14:09:44;16.00;78.50
8220;DHT22;4151;51.110;7.020;2023-03-01T14:13:08;15.50;79.10
8220;DHT22;4151;51.110;7.020;2023-03-01T14:15:46;14.70;81.00
8220;DHT22;4151;51.110;7.020;2023-03-01T14:18:24;15.40;81.80
8220;DHT22;4151;51.110;7.020;2023-03-01T14:20:52;15.70;79.50
8220;DHT22;4151;51.110;7.020;2023-03-01T14:23:22;15.60;80.60
8220;DHT22;4151;51.110;7.020;2023-03-01T14:25:50;15.50;79.40
8220;DHT22;4151;51.110;7.020;2023-03-01T14:28:22;15.20;80.60
8220;DHT22;4151;51.110;7.020;2023-03-01T14:30:52;14.90;81.40
8220;DHT22;4151;51.110;7.020;2023-03-01T14:33:32;14.30;82.20
8220;DHT22;4151;51.110;7.020;2023-03-01T14:36:09;14.70;83.40
8220;DHT22;4151;51.110;7.020;2023-03-01T14:41:25;16.10;80.30
8220;DHT22;4151;51.110;7.020;2023-03-01T14:43:58;17.10;78.10
8220;DHT22;4151;51.110;7.020;2023-03-01T14:46:32;17.40;77.20
8220;DHT22;4151;51.110;7.020;2023-03-01T14:49:09;17.90;75.20
8220;DHT22;4151;51.110;7.020;2023-03-01T14:51:41;16.90;77.00
8220;DHT22;4151;51.110;7.020;2023-03-01T14:54:26;17.30;75.90
8220;DHT22;4151;51.110;7.020;2023-03-01T14:56:54;17.00;74.60
8220;DHT22;4151;51.110;7.020;2023-03-01T14:59:24;15.80;76.90
8220;DHT22;4151;51.110;7.020;2023-03-01T15:01:51;15.80;77.20
8220;DHT22;4151;51.110;7.020;2023-03-01T15:04:18;16.30;76.40
8220;DHT22;4151;51.110;7.020;2023-03-01T15:06:45;16.70;75.80
8220;DHT22;4151;51.110;7.020;2023-03-01T15:09:14;16.70;74.40
8220;DHT22;4151;51.110;7.020;2023-03-01T15:11:42;16.60;74.50
8220;DHT22;4151;51.110;7.020;2023-03-01T15:14:28;16.10;74.30
8220;DHT22;4151;51.110;7.020;2023-03-01T15:16:55;15.40;75.70
8220;DHT22;4151;51.110;7.020;2023-03-01T15:19:23;15.60;76.90
8220;DHT22;4151;51.110;7.020;2023-03-01T15:21:50;16.00;74.80
8220;DHT22;4151;51.110;7.020;2023-03-01T15:24:24;16.20;74.50
8220;DHT22;4151;51.110;7.020;2023-03-01T15:26:52;16.00;74.30
8220;DHT22;4151;51.110;7.020;2023-03-01T15:29:27;16.40;74.00
8220;DHT22;4151;51.110;7.020;2023-03-01T15:31:58;16.80;74.70
8220;DHT22;4151;51.110;7.020;2023-03-01T15:34:37;17.50;72.90
8220;DHT22;4151;51.110;7.020;2023-03-01T15:37:05;17.20;72.00
8220;DHT22;4151;51.110;7.020;2023-03-01T15:42:10;18.10;71.80
8220;DHT22;4151;51.110;7.020;2023-03-01T15:44:41;18.50;69.30
8220;DHT22;4151;51.110;7.020;2023-03-01T15:47:24;18.20;70.10
8220;DHT22;4151;51.110;7.020;2023-03-01T15:49:53;18.00;68.10
8220;DHT22;4151;51.110;7.020;2023-03-01T15:54:58;16.70;71.00
8220;DHT22;4151;51.110;7.020;2023-03-01T15:57:24;16.70;71.40
8220;DHT22;4151;51.110;7.020;2023-03-01T15:59:50;17.10;70.30
8220;DHT22;4151;51.110;7.020;2023-03-01T16:02:15;17.50;69.10
8220;DHT22;4151;51.110;7.020;2023-03-01T16:04:41;17.50;69.40
8220;DHT22;4151;51.110;7.020;2023-03-01T16:07:09;16.90;69.80
8220;DHT22;4151;51.110;7.020;2023-03-01T16:09:35;16.30;70.60
8220;DHT22;4151;51.110;7.020;2023-03-01T16:12:01;16.70;70.80
8220;DHT22;4151;51.110;7.020;2023-03-01T16:14:27;16.30;71.10
8220;DHT22;4151;51.110;7.020;2023-03-01T16:16:53;17.00;70.50
8220;DHT22;4151;51.110;7.020;2023-03-01T16:19:18;16.60;70.00
8220;DHT22;4151;51.110;7.020;2023-03-01T16:21:44;16.10;71.10
8220;DHT22;4151;51.110;7.020;2023-03-01T16:24:12;16.30;71.80
8220;DHT22;4151;51.110;7.020;2023-03-01T16:26:38;15.60;71.20
8220;DHT22;4151;51.110;7.020;2023-03-01T16:29:04;15.40;72.50
8220;DHT22;4151;51.110;7.020;2023-03-01T16:31:30;14.80;73.60
8220;DHT22;4151;51.110;7.020;2023-03-01T16:33:57;15.10;73.20
8220;DHT22;4151;51.110;7.020;2023-03-01T16:36:24;14.40;73.80
8220;DHT22;4151;51.110;7.020;2023-03-01T16:38:51;13.40;76.00
8220;DHT22;4151;51.110;7.020;2023-03-01T16:41:20;11.50;80.50
8220;DHT22;4151;51.110;7.020;2023-03-01T16:43:46;10.30;84.00
8220;DHT22;4151;51.110;7.020;2023-03-01T16:46:20;9.40;88.40
8220;DHT22;4151;51.110;7.020;2023-03-01T16:48:47;8.80;90.40
8220;DHT22;4151;51.110;7.020;2023-03-01T16:51:13;8.40;91.80
8220;DHT22;4151;51.110;7.020;2023-03-01T16:53:39;8.10;93.30
8220;DHT22;4151;51.110;7.020;2023-03-01T16:56:08;7.70;94.50
8220;DHT22;4151;51.110;7.020;2023-03-01T16:58:35;7.30;96.20
8220;DHT22;4151;51.110;7.020;2023-03-01T17:01:15;7.10;97.20
8220;DHT22;4151;51.110;7.020;2023-03-01T17:03:42;6.90;97.70
8220;DHT22;4151;51.110;7.020;2023-03-01T17:06:11;6.60;99.20
8220;DHT22;4151;51.110;7.020;2023-03-01T17:08:38;6.50;99.70
8220;DHT22;4151;51.110;7.020;2023-03-01T17:11:05;6.30;99.90
8220;DHT22;4151;51.110;7.020;2023-03-01T17:13:31;6.20;99.90
8220;DHT22;4151;51.110;7.020;2023-03-01T17:15:56;6.00;99.90
8220;DHT22;4151;51.110;7.020;2023-03-01T17:18:22;5.90;99.90
8220;DHT22;4151;51.110;7.020;2023-03-01T17:20:48;5.80;99.90
8220;DHT22;4151;51.110;7.020;2023-03-01T17:23:14;5.70;99.90
8220;DHT22;4151;51.110;7.020;2023-03-01T17:25:45;5.60;99.90
8220;DHT22;4151;51.110;7.020;2023-03-01T17:28:14;5.50;99.90
8220;DHT22;4151;51.110;7.020;2023-03-01T17:30:44;5.40;99.90
8220;DHT22;4151;51.110;7.020;2023-03-01T17:33:13;5.20;99.90
8220;DHT22;4151;51.110;7.020;2023-03-01T17:35:39;5.20;99.90
8220;DHT22;4151;51.110;7.020;2023-03-01T17:38:05;5.10;99.90
8220;DHT22;4151;51.110;7.020;2023-03-01T17:40:31;5.00;99.90
8220;DHT22;4151;51.110;7.020;2023-03-01T17:42:57;5.00;99.90
8220;DHT22;4151;51.110;7.020;2023-03-01T17:45:23;4.90;99.90
8220;DHT22;4151;51.110;7.020;2023-03-01T17:47:49;4.80;99.90
8220;DHT22;4151;51.110;7.020;2023-03-01T17:50:15;4.70;99.90
8220;DHT22;4151;51.110;7.020;2023-03-01T17:52:40;4.70;99.90
8220;DHT22;4151;51.110;7.020;2023-03-01T17:55:07;4.60;99.90
8220;DHT22;4151;51.110;7.020;2023-03-01T17:57:33;4.60;99.90
8220;DHT22;4151;51.110;7.020;2023-03-01T17:59:59;4.50;99.90
8220;DHT22;4151;51.110;7.020;2023-03-01T18:02:24;4.50;99.90
8220;DHT22;4151;51.110;7.020;2023-03-01T18:04:51;4.50;99.90
8220;DHT22;4151;51.110;7.020;2023-03-01T18:07:18;4.40;99.90